sensor_id;sensor_type;location;lat;lon;timestamp;pressure;altitude;pressure_sealevel;temperature;humidity
26443;BME280;5563;52.296;6.806;2023-06-14T00:02:36;101405.00;;;17.29;42.49
26443;BME280;5563;52.296;6.806;2023-06-14T00:05:10;101404.22;;;17.19;42.84
26443;BME280;5563;52.296;6.806;2023-06-14T00:07:44;101400.84;;;17.17;43.68
26443;BME280;5563;52.296;6.806;2023-06-14T00:10:21;101408.69;;;17.11;43.92
26443;BME280;5563;52.296;6.806;2023-06-14T00:12:54;101397.53;;;17.06;43.91
26443;BME280;5563;52.296;6.806;2023-06-14T00:15:20;101404.53;;;16.99;44.30
26443;BME280;5563;52.296;6.806;2023-06-14T00:17:54;101398.88;;;16.92;44.40
26443;BME280;5563;52.296;6.806;2023-06-14T00:20:21;101398.47;;;16.87;45.06
26443;BME280;5563;52.296;6.806;2023-06-14T00:22:56;101405.47;;;16.80;46.33
26443;BME280;5563;52.296;6.806;2023-06-14T00:25:24;101406.47;;;16.79;46.08
26443;BME280;5563;52.296;6.806;2023-06-14T00:28:01;101405.66;;;16.69;45.80
26443;BME280;5563;52.296;6.806;2023-06-14T00:30:28;101408.28;;;16.61;45.79
26443;BME280;5563;52.296;6.806;2023-06-14T00:33:04;101405.44;;;16.53;45.89
26443;BME280;5563;52.296;6.806;2023-06-14T00:35:31;101409.16;;;16.52;46.42
26443;BME280;5563;52.296;6.806;2023-06-14T00:37:58;101400.81;;;16.46;47.11
26443;BME280;5563;52.296;6.806;2023-06-14T00:40:39;101411.84;;;16.43;46.15
26443;BME280;5563;52.296;6.806;2023-06-14T00:43:06;101414.28;;;16.36;47.17
26443;BME280;5563;52.296;6.806;2023-06-14T00:45:40;101405.97;;;16.30;47.20
26443;BME280;5563;52.296;6.806;2023-06-14T00:48:13;101397.91;;;16.20;47.85
26443;BME280;5563;52.296;6.806;2023-06-14T00:50:49;101417.28;;;16.23;47.69
26443;BME280;5563;52.296;6.806;2023-06-14T00:53:16;101419.59;;;16.18;47.49
26443;BME280;5563;52.296;6.806;2023-06-14T00:55:53;101417.91;;;16.17;48.23
26443;BME280;5563;52.296;6.806;2023-06-14T00:58:21;101421.41;;;16.18;48.09
26443;BME280;5563;52.296;6.806;2023-06-14T01:00:56;101419.19;;;16.13;48.15
26443;BME280;5563;52.296;6.806;2023-06-14T01:03:23;101419.47;;;16.10;47.80
26443;BME280;5563;52.296;6.806;2023-06-14T01:09:14;101420.59;;;16.08;47.56
26443;BME280;5563;52.296;6.806;2023-06-14T01:12:13;101425.28;;;16.06;47.54
26443;BME280;5563;52.296;6.806;2023-06-14T01:14:48;101426.69;;;16.00;48.50
26443;BME280;5563;52.296;6.806;2023-06-14T01:17:29;101422.47;;;15.98;47.60
26443;BME280;5563;52.296;6.806;2023-06-14T01:20:00;101425.44;;;15.95;47.81
26443;BME280;5563;52.296;6.806;2023-06-14T01:22:34;101425.88;;;15.90;49.70
26443;BME280;5563;52.296;6.806;2023-06-14T01:25:04;101427.16;;;15.86;50.39
26443;BME280;5563;52.296;6.806;2023-06-14T01:27:37;101425.72;;;15.82;49.54
26443;BME280;5563;52.296;6.806;2023-06-14T01:30:11;101426.16;;;15.78;49.16
26443;BME280;5563;52.296;6.806;2023-06-14T01:32:40;101419.38;;;15.74;49.71
26443;BME280;5563;52.296;6.806;2023-06-14T01:35:14;101432.25;;;15.70;49.45
26443;BME280;5563;52.296;6.806;2023-06-14T01:37:42;101425.91;;;15.62;49.94
26443;BME280;5563;52.296;6.806;2023-06-14T01:40:17;101436.66;;;15.62;50.71
26443;BME280;5563;52.296;6.806;2023-06-14T01:42:46;101432.53;;;15.58;50.79
26443;BME280;5563;52.296;6.806;2023-06-14T01:45:21;101431.81;;;15.56;50.61
26443;BME280;5563;52.296;6.806;2023-06-14T01:47:49;101427.31;;;15.56;50.35
26443;BME280;5563;52.296;6.806;2023-06-14T01:50:28;101433.94;;;15.52;50.74
26443;BME280;5563;52.296;6.806;2023-06-14T01:52:55;101428.16;;;15.47;50.79
26443;BME280;5563;52.296;6.806;2023-06-14T01:55:28;101425.03;;;15.42;50.24
26443;BME280;5563;52.296;6.806;2023-06-14T01:57:55;101425.44;;;15.38;52.17
26443;BME280;5563;52.296;6.806;2023-06-14T02:00:29;101424.72;;;15.36;51.67
26443;BME280;5563;52.296;6.806;2023-06-14T02:03:02;101416.94;;;15.23;51.16
26443;BME280;5563;52.296;6.806;2023-06-14T02:05:42;101429.78;;;15.29;51.41
26443;BME280;5563;52.296;6.806;2023-06-14T02:08:16;101423.84;;;15.26;51.80
26443;BME280;5563;52.296;6.806;2023-06-14T02:10:42;101431.09;;;15.25;51.27
26443;BME280;5563;52.296;6.806;2023-06-14T02:13:15;101425.28;;;15.20;51.82
26443;BME280;5563;52.296;6.806;2023-06-14T02:15:49;101423.88;;;15.16;51.81
26443;BME280;5563;52.296;6.806;2023-06-14T02:18:26;101425.69;;;15.15;52.19
26443;BME280;5563;52.296;6.806;2023-06-14T02:20:53;101423.53;;;15.09;52.92
26443;BME280;5563;52.296;6.806;2023-06-14T02:23:27;101427.22;;;15.08;52.57
26443;BME280;5563;52.296;6.806;2023-06-14T02:25:54;101432.03;;;15.05;53.06
26443;BME280;5563;52.296;6.806;2023-06-14T02:28:27;101431.47;;;15.01;52.67
26443;BME280;5563;52.296;6.806;2023-06-14T02:31:00;101421.56;;;15.02;53.11
26443;BME280;5563;52.296;6.806;2023-06-14T02:33:34;101428.91;;;15.00;53.37
26443;BME280;5563;52.296;6.806;2023-06-14T02:36:01;101430.16;;;14.96;53.21
26443;BME280;5563;52.296;6.806;2023-06-14T02:38:35;101432.00;;;14.95;53.79
26443;BME280;5563;52.296;6.806;2023-06-14T02:41:02;101440.47;;;14.91;53.30
26443;BME280;5563;52.296;6.806;2023-06-14T02:43:37;101430.56;;;14.82;53.79
26443;BME280;5563;52.296;6.806;2023-06-14T02:46:04;101440.44;;;14.81;54.29
26443;BME280;5563;52.296;6.806;2023-06-14T02:48:37;101435.34;;;14.78;54.13
26443;BME280;5563;52.296;6.806;2023-06-14T02:51:11;101435.06;;;14.72;53.59
26443;BME280;5563;52.296;6.806;2023-06-14T02:53:39;101432.75;;;14.67;55.11
26443;BME280;5563;52.296;6.806;2023-06-14T02:56:14;101443.91;;;14.63;55.66
26443;BME280;5563;52.296;6.806;2023-06-14T02:58:44;101442.75;;;14.56;56.16
26443;BME280;5563;52.296;6.806;2023-06-14T03:01:17;101442.03;;;14.54;55.34
26443;BME280;5563;52.296;6.806;2023-06-14T03:03:44;101439.75;;;14.49;55.05
26443;BME280;5563;52.296;6.806;2023-06-14T03:06:31;101441.03;;;14.45;55.66
26443;BME280;5563;52.296;6.806;2023-06-14T03:08:59;101449.31;;;14.42;56.25
26443;BME280;5563;52.296;6.806;2023-06-14T03:11:34;101451.41;;;14.39;55.76
26443;BME280;5563;52.296;6.806;2023-06-14T03:14:01;101455.81;;;14.40;55.95
26443;BME280;5563;52.296;6.806;2023-06-14T03:16:37;101463.56;;;14.33;56.68
26443;BME280;5563;52.296;6.806;2023-06-14T03:19:04;101465.03;;;14.26;56.64
26443;BME280;5563;52.296;6.806;2023-06-14T03:21:37;101462.59;;;14.23;57.07
26443;BME280;5563;52.296;6.806;2023-06-14T03:24:04;101464.84;;;14.18;56.57
26443;BME280;5563;52.296;6.806;2023-06-14T03:26:38;101456.72;;;14.08;57.56
26443;BME280;5563;52.296;6.806;2023-06-14T03:29:12;101472.28;;;14.15;57.42
26443;BME280;5563;52.296;6.806;2023-06-14T03:31:56;101475.09;;;14.13;57.05
26443;BME280;5563;52.296;6.806;2023-06-14T03:34:31;101480.75;;;14.10;56.96
26443;BME280;5563;52.296;6.806;2023-06-14T03:36:58;101480.03;;;14.08;58.17
26443;BME280;5563;52.296;6.806;2023-06-14T03:39:32;101489.63;;;14.10;58.57
26443;BME280;5563;52.296;6.806;2023-06-14T03:41:58;101483.53;;;14.08;57.84
26443;BME280;5563;52.296;6.806;2023-06-14T03:44:32;101485.25;;;14.09;58.36
26443;BME280;5563;52.296;6.806;2023-06-14T03:46:58;101495.13;;;14.09;58.46
26443;BME280;5563;52.296;6.806;2023-06-14T03:49:32;101494.38;;;14.07;58.24
26443;BME280;5563;52.296;6.806;2023-06-14T03:51:59;101495.97;;;14.09;58.04
26443;BME280;5563;52.296;6.806;2023-06-14T03:54:32;101485.88;;;14.02;58.39
26443;BME280;5563;52.296;6.806;2023-06-14T03:57:02;101490.28;;;14.03;58.74
26443;BME280;5563;52.296;6.806;2023-06-14T03:59:29;101504.97;;;14.08;58.58
26443;BME280;5563;52.296;6.806;2023-06-14T04:02:03;101509.38;;;14.09;57.82
26443;BME280;5563;52.296;6.806;2023-06-14T04:04:32;101508.38;;;14.10;58.69
26443;BME280;5563;52.296;6.806;2023-06-14T04:07:12;101506.84;;;14.08;58.34
26443;BME280;5563;52.296;6.806;2023-06-14T04:09:46;101512.06;;;14.09;58.31
26443;BME280;5563;52.296;6.806;2023-06-14T04:12:20;101508.66;;;14.07;59.39
26443;BME280;5563;52.296;6.806;2023-06-14T04:14:46;101518.75;;;14.15;58.37
26443;BME280;5563;52.296;6.806;2023-06-14T04:17:22;101520.44;;;14.16;59.15
26443;BME280;5563;52.296;6.806;2023-06-14T04:19:49;101527.38;;;14.19;59.28
26443;BME280;5563;52.296;6.806;2023-06-14T04:22:22;101526.38;;;14.20;58.17
26443;BME280;5563;52.296;6.806;2023-06-14T04:24:48;101518.34;;;14.20;59.33
26443;BME280;5563;52.296;6.806;2023-06-14T04:27:30;101527.81;;;14.24;58.78
26443;BME280;5563;52.296;6.806;2023-06-14T04:30:09;101530.84;;;14.30;59.37
26443;BME280;5563;52.296;6.806;2023-06-14T04:32:36;101533.31;;;14.33;59.61
26443;BME280;5563;52.296;6.806;2023-06-14T04:35:12;101526.53;;;14.39;59.95
26443;BME280;5563;52.296;6.806;2023-06-14T04:37:39;101525.44;;;14.41;59.73
26443;BME280;5563;52.296;6.806;2023-06-14T04:40:17;101544.97;;;14.53;59.22
26443;BME280;5563;52.296;6.806;2023-06-14T04:42:44;101550.81;;;14.58;59.25
26443;BME280;5563;52.296;6.806;2023-06-14T04:45:19;101540.91;;;14.58;59.98
26443;BME280;5563;52.296;6.806;2023-06-14T04:47:46;101563.31;;;14.68;57.37
26443;BME280;5563;52.296;6.806;2023-06-14T04:50:20;101553.81;;;14.64;58.20
26443;BME280;5563;52.296;6.806;2023-06-14T04:52:47;101563.63;;;14.75;59.06
26443;BME280;5563;52.296;6.806;2023-06-14T04:55:24;101573.72;;;14.92;59.06
26443;BME280;5563;52.296;6.806;2023-06-14T04:57:58;101568.84;;;14.97;57.83
26443;BME280;5563;52.296;6.806;2023-06-14T05:00:31;101560.88;;;14.95;57.74
26443;BME280;5563;52.296;6.806;2023-06-14T05:02:58;101567.63;;;15.10;58.94
26443;BME280;5563;52.296;6.806;2023-06-14T05:05:41;101565.66;;;15.22;57.75
26443;BME280;5563;52.296;6.806;2023-06-14T05:08:15;101556.91;;;15.20;57.20
26443;BME280;5563;52.296;6.806;2023-06-14T05:10:42;101563.44;;;15.27;57.18
26443;BME280;5563;52.296;6.806;2023-06-14T05:13:15;101566.00;;;15.38;56.81
26443;BME280;5563;52.296;6.806;2023-06-14T05:15:42;101570.44;;;15.49;56.36
26443;BME280;5563;52.296;6.806;2023-06-14T05:18:16;101561.38;;;15.40;56.98
26443;BME280;5563;52.296;6.806;2023-06-14T05:20:49;101572.03;;;15.51;56.92
26443;BME280;5563;52.296;6.806;2023-06-14T05:23:16;101574.47;;;15.64;56.94
26443;BME280;5563;52.296;6.806;2023-06-14T05:25:49;101572.75;;;15.63;56.64
26443;BME280;5563;52.296;6.806;2023-06-14T05:28:16;101576.59;;;15.79;56.56
26443;BME280;5563;52.296;6.806;2023-06-14T05:30:49;101579.44;;;15.97;55.88
26443;BME280;5563;52.296;6.806;2023-06-14T05:33:16;101580.31;;;16.07;56.11
26443;BME280;5563;52.296;6.806;2023-06-14T05:35:43;101584.25;;;16.12;56.14
26443;BME280;5563;52.296;6.806;2023-06-14T05:38:17;101586.09;;;16.21;55.66
26443;BME280;5563;52.296;6.806;2023-06-14T05:40:50;101581.28;;;16.25;55.48
26443;BME280;5563;52.296;6.806;2023-06-14T05:43:16;101589.50;;;16.33;54.32
26443;BME280;5563;52.296;6.806;2023-06-14T05:45:43;101600.53;;;16.40;54.76
26443;BME280;5563;52.296;6.806;2023-06-14T05:48:17;101594.75;;;16.44;54.87
26443;BME280;5563;52.296;6.806;2023-06-14T05:50:43;101599.44;;;16.52;54.19
26443;BME280;5563;52.296;6.806;2023-06-14T05:53:17;101601.41;;;16.59;54.24
26443;BME280;5563;52.296;6.806;2023-06-14T05:55:50;101599.53;;;16.69;53.76
26443;BME280;5563;52.296;6.806;2023-06-14T05:58:28;101603.50;;;16.84;52.36
26443;BME280;5563;52.296;6.806;2023-06-14T06:00:55;101601.59;;;16.94;51.76
26443;BME280;5563;52.296;6.806;2023-06-14T06:03:22;101594.94;;;16.98;51.78
26443;BME280;5563;52.296;6.806;2023-06-14T06:05:56;101607.38;;;17.18;51.80
26443;BME280;5563;52.296;6.806;2023-06-14T06:08:30;101608.00;;;17.30;51.42
26443;BME280;5563;52.296;6.806;2023-06-14T06:11:04;101604.66;;;17.46;52.09
26443;BME280;5563;52.296;6.806;2023-06-14T06:13:38;101607.19;;;17.57;50.27
26443;BME280;5563;52.296;6.806;2023-06-14T06:16:05;101617.09;;;17.66;49.80
26443;BME280;5563;52.296;6.806;2023-06-14T06:18:32;101606.16;;;17.67;49.40
26443;BME280;5563;52.296;6.806;2023-06-14T06:21:07;101607.38;;;17.73;49.33
26443;BME280;5563;52.296;6.806;2023-06-14T06:23:34;101614.09;;;17.86;49.78
26443;BME280;5563;52.296;6.806;2023-06-14T06:26:09;101615.34;;;17.92;49.18
26443;BME280;5563;52.296;6.806;2023-06-14T06:28:36;101609.19;;;17.99;48.98
26443;BME280;5563;52.296;6.806;2023-06-14T06:31:09;101607.91;;;18.03;49.09
26443;BME280;5563;52.296;6.806;2023-06-14T06:33:38;101616.44;;;18.16;48.15
26443;BME280;5563;52.296;6.806;2023-06-14T06:36:13;101617.78;;;18.30;48.14
26443;BME280;5563;52.296;6.806;2023-06-14T06:38:40;101620.13;;;18.43;47.74
26443;BME280;5563;52.296;6.806;2023-06-14T06:41:07;101626.28;;;18.53;47.88
26443;BME280;5563;52.296;6.806;2023-06-14T06:43:41;101625.50;;;18.60;48.00
26443;BME280;5563;52.296;6.806;2023-06-14T06:46:14;101616.91;;;18.65;46.55
26443;BME280;5563;52.296;6.806;2023-06-14T06:48:49;101618.34;;;18.77;46.55
26443;BME280;5563;52.296;6.806;2023-06-14T06:51:16;101623.28;;;18.81;46.78
26443;BME280;5563;52.296;6.806;2023-06-14T06:53:53;101635.00;;;18.90;46.02
26443;BME280;5563;52.296;6.806;2023-06-14T06:56:21;101630.66;;;18.97;46.03
26443;BME280;5563;52.296;6.806;2023-06-14T06:58:57;101626.31;;;19.04;46.09
26443;BME280;5563;52.296;6.806;2023-06-14T07:01:24;101625.31;;;19.05;45.52
26443;BME280;5563;52.296;6.806;2023-06-14T07:03:53;101637.19;;;19.12;44.71
26443;BME280;5563;52.296;6.806;2023-06-14T07:06:26;101636.69;;;19.16;45.73
26443;BME280;5563;52.296;6.806;2023-06-14T07:09:06;101636.38;;;19.19;45.00
26443;BME280;5563;52.296;6.806;2023-06-14T07:11:47;101639.59;;;19.23;44.99
26443;BME280;5563;52.296;6.806;2023-06-14T07:14:21;101644.59;;;19.35;45.18
26443;BME280;5563;52.296;6.806;2023-06-14T07:16:49;101650.75;;;19.46;45.13
26443;BME280;5563;52.296;6.806;2023-06-14T07:19:23;101645.22;;;19.55;45.15
26443;BME280;5563;52.296;6.806;2023-06-14T07:21:50;101647.78;;;19.65;43.89
26443;BME280;5563;52.296;6.806;2023-06-14T07:24:17;101653.03;;;19.66;42.96
26443;BME280;5563;52.296;6.806;2023-06-14T07:26:50;101655.41;;;19.69;42.54
26443;BME280;5563;52.296;6.806;2023-06-14T07:29:17;101659.50;;;19.73;42.66
26443;BME280;5563;52.296;6.806;2023-06-14T07:31:51;101648.50;;;19.75;42.16
26443;BME280;5563;52.296;6.806;2023-06-14T07:34:18;101664.63;;;19.84;41.46
26443;BME280;5563;52.296;6.806;2023-06-14T07:36:51;101643.81;;;19.85;40.70
26443;BME280;5563;52.296;6.806;2023-06-14T07:39:18;101657.53;;;19.99;41.03
26443;BME280;5563;52.296;6.806;2023-06-14T07:41:52;101661.63;;;20.03;40.03
26443;BME280;5563;52.296;6.806;2023-06-14T07:44:19;101657.59;;;20.07;40.75
26443;BME280;5563;52.296;6.806;2023-06-14T07:46:52;101659.47;;;20.15;39.10
26443;BME280;5563;52.296;6.806;2023-06-14T07:49:26;101656.97;;;20.21;38.98
26443;BME280;5563;52.296;6.806;2023-06-14T07:51:53;101662.72;;;20.26;40.37
26443;BME280;5563;52.296;6.806;2023-06-14T07:54:27;101664.44;;;20.35;39.70
26443;BME280;5563;52.296;6.806;2023-06-14T07:56:54;101653.47;;;20.45;39.25
26443;BME280;5563;52.296;6.806;2023-06-14T07:59:29;101666.66;;;20.56;37.93
26443;BME280;5563;52.296;6.806;2023-06-14T08:01:56;101666.81;;;20.55;38.17
26443;BME280;5563;52.296;6.806;2023-06-14T08:04:36;101655.81;;;20.56;37.63
26443;BME280;5563;52.296;6.806;2023-06-14T08:07:04;101656.66;;;20.57;38.44
26443;BME280;5563;52.296;6.806;2023-06-14T08:09:38;101669.53;;;20.71;37.61
26443;BME280;5563;52.296;6.806;2023-06-14T08:12:05;101661.94;;;20.82;36.77
26443;BME280;5563;52.296;6.806;2023-06-14T08:14:45;101661.91;;;20.90;35.93
26443;BME280;5563;52.296;6.806;2023-06-14T08:17:34;101655.63;;;20.90;35.87
26443;BME280;5563;52.296;6.806;2023-06-14T08:20:02;101656.50;;;20.98;36.09
26443;BME280;5563;52.296;6.806;2023-06-14T08:22:37;101658.38;;;21.14;36.05
26443;BME280;5563;52.296;6.806;2023-06-14T08:25:12;101665.25;;;21.32;35.69
26443;BME280;5563;52.296;6.806;2023-06-14T08:27:40;101653.50;;;21.56;34.41
26443;BME280;5563;52.296;6.806;2023-06-14T08:30:14;101664.44;;;21.79;34.63
26443;BME280;5563;52.296;6.806;2023-06-14T08:32:41;101652.84;;;21.93;33.38
26443;BME280;5563;52.296;6.806;2023-06-14T08:35:08;101655.72;;;21.99;33.96
26443;BME280;5563;52.296;6.806;2023-06-14T08:37:42;101658.66;;;22.12;33.84
26443;BME280;5563;52.296;6.806;2023-06-14T08:40:21;101663.69;;;22.23;33.49
26443;BME280;5563;52.296;6.806;2023-06-14T08:42:54;101661.59;;;22.33;33.83
26443;BME280;5563;52.296;6.806;2023-06-14T08:45:22;101662.47;;;22.57;34.77
26443;BME280;5563;52.296;6.806;2023-06-14T08:47:58;101654.22;;;22.87;32.71
26443;BME280;5563;52.296;6.806;2023-06-14T08:50:28;101658.38;;;22.98;31.83
26443;BME280;5563;52.296;6.806;2023-06-14T08:53:04;101658.84;;;23.01;32.62
26443;BME280;5563;52.296;6.806;2023-06-14T08:55:32;101651.25;;;23.11;31.88
26443;BME280;5563;52.296;6.806;2023-06-14T08:58:11;101652.50;;;23.09;31.54
26443;BME280;5563;52.296;6.806;2023-06-14T09:00:48;101659.63;;;22.95;33.25
26443;BME280;5563;52.296;6.806;2023-06-14T09:03:16;101660.66;;;23.09;32.50
26443;BME280;5563;52.296;6.806;2023-06-14T09:05:50;101651.25;;;23.11;32.06
26443;BME280;5563;52.296;6.806;2023-06-14T09:08:32;101659.63;;;23.10;32.19
26443;BME280;5563;52.296;6.806;2023-06-14T09:11:05;101660.13;;;23.28;33.52
26443;BME280;5563;52.296;6.806;2023-06-14T09:13:32;101662.59;;;23.37;31.84
26443;BME280;5563;52.296;6.806;2023-06-14T09:16:06;101661.34;;;23.25;32.18
26443;BME280;5563;52.296;6.806;2023-06-14T09:18:37;101657.97;;;23.38;32.60
26443;BME280;5563;52.296;6.806;2023-06-14T09:21:11;101666.72;;;23.48;33.28
26443;BME280;5563;52.296;6.806;2023-06-14T09:23:41;101663.81;;;23.35;31.13
26443;BME280;5563;52.296;6.806;2023-06-14T09:26:17;101668.78;;;23.31;31.62
26443;BME280;5563;52.296;6.806;2023-06-14T09:28:50;101666.84;;;23.17;31.40
26443;BME280;5563;52.296;6.806;2023-06-14T09:31:24;101668.63;;;23.10;31.54
26443;BME280;5563;52.296;6.806;2023-06-14T09:33:52;101673.84;;;22.97;32.13
26443;BME280;5563;52.296;6.806;2023-06-14T09:36:25;101665.06;;;22.95;32.58
26443;BME280;5563;52.296;6.806;2023-06-14T09:39:00;101670.22;;;23.05;32.24
26443;BME280;5563;52.296;6.806;2023-06-14T09:41:38;101654.50;;;23.15;32.36
26443;BME280;5563;52.296;6.806;2023-06-14T09:44:12;101664.06;;;23.25;31.83
26443;BME280;5563;52.296;6.806;2023-06-14T09:46:46;101672.53;;;23.30;31.21
26443;BME280;5563;52.296;6.806;2023-06-14T09:49:20;101667.81;;;23.24;33.38
26443;BME280;5563;52.296;6.806;2023-06-14T09:51:50;101661.75;;;23.37;32.03
26443;BME280;5563;52.296;6.806;2023-06-14T09:54:27;101670.78;;;23.52;31.86
26443;BME280;5563;52.296;6.806;2023-06-14T09:56:54;101679.47;;;23.33;30.62
26443;BME280;5563;52.296;6.806;2023-06-14T09:59:29;101693.22;;;23.17;31.98
26443;BME280;5563;52.296;6.806;2023-06-14T10:02:09;101664.22;;;23.09;32.67
26443;BME280;5563;52.296;6.806;2023-06-14T10:04:58;101676.09;;;23.31;33.32
26443;BME280;5563;52.296;6.806;2023-06-14T10:07:52;101670.56;;;23.68;31.95
26443;BME280;5563;52.296;6.806;2023-06-14T10:10:26;101673.84;;;23.93;30.95
26443;BME280;5563;52.296;6.806;2023-06-14T10:13:00;101655.34;;;24.03;31.16
26443;BME280;5563;52.296;6.806;2023-06-14T10:21:28;101675.50;;;23.94;32.33
26443;BME280;5563;52.296;6.806;2023-06-14T10:24:01;101680.91;;;24.02;32.39
26443;BME280;5563;52.296;6.806;2023-06-14T10:26:53;101680.91;;;24.02;31.45
26443;BME280;5563;52.296;6.806;2023-06-14T10:29:26;101674.13;;;24.12;32.12
26443;BME280;5563;52.296;6.806;2023-06-14T10:32:05;101681.97;;;24.43;31.04
26443;BME280;5563;52.296;6.806;2023-06-14T10:34:32;101681.03;;;24.50;31.27
26443;BME280;5563;52.296;6.806;2023-06-14T10:37:10;101681.53;;;24.60;30.43
26443;BME280;5563;52.296;6.806;2023-06-14T10:39:41;101691.41;;;24.76;30.54
26443;BME280;5563;52.296;6.806;2023-06-14T10:42:15;101680.38;;;24.48;29.73
26443;BME280;5563;52.296;6.806;2023-06-14T10:44:44;101674.59;;;24.58;30.08
26443;BME280;5563;52.296;6.806;2023-06-14T10:47:34;101670.09;;;24.29;29.99
26443;BME280;5563;52.296;6.806;2023-06-14T10:50:12;101674.25;;;24.25;30.39
26443;BME280;5563;52.296;6.806;2023-06-14T10:52:47;101669.34;;;24.35;30.22
26443;BME280;5563;52.296;6.806;2023-06-14T10:55:15;101668.75;;;24.40;30.11
26443;BME280;5563;52.296;6.806;2023-06-14T10:57:52;101662.78;;;24.51;30.73
26443;BME280;5563;52.296;6.806;2023-06-14T11:00:29;101661.81;;;24.58;29.54
26443;BME280;5563;52.296;6.806;2023-06-14T11:05:57;101642.78;;;24.65;30.05
26443;BME280;5563;52.296;6.806;2023-06-14T11:11:47;101662.00;;;24.99;30.09
26443;BME280;5563;52.296;6.806;2023-06-14T11:14:15;101657.06;;;25.16;29.69
26443;BME280;5563;52.296;6.806;2023-06-14T11:16:49;101652.81;;;25.34;29.74
26443;BME280;5563;52.296;6.806;2023-06-14T11:19:16;101642.91;;;25.33;28.53
26443;BME280;5563;52.296;6.806;2023-06-14T11:21:53;101671.34;;;25.11;29.90
26443;BME280;5563;52.296;6.806;2023-06-14T11:24:20;101658.22;;;25.00;29.28
26443;BME280;5563;52.296;6.806;2023-06-14T11:26:55;101649.66;;;24.61;30.50
26443;BME280;5563;52.296;6.806;2023-06-14T11:29:23;101638.50;;;24.56;30.97
26443;BME280;5563;52.296;6.806;2023-06-14T11:31:56;101654.72;;;24.85;30.54
26443;BME280;5563;52.296;6.806;2023-06-14T11:34:29;101643.25;;;24.90;28.99
26443;BME280;5563;52.296;6.806;2023-06-14T11:37:02;101638.44;;;24.92;29.87
26443;BME280;5563;52.296;6.806;2023-06-14T11:39:29;101642.75;;;25.07;30.33
26443;BME280;5563;52.296;6.806;2023-06-14T11:42:03;101650.66;;;24.96;29.57
26443;BME280;5563;52.296;6.806;2023-06-14T11:44:31;101641.31;;;25.11;30.77
26443;BME280;5563;52.296;6.806;2023-06-14T11:47:05;101647.69;;;25.25;29.42
26443;BME280;5563;52.296;6.806;2023-06-14T11:49:38;101643.84;;;25.13;30.08
26443;BME280;5563;52.296;6.806;2023-06-14T11:52:11;101655.91;;;25.31;29.00
26443;BME280;5563;52.296;6.806;2023-06-14T11:54:38;101643.31;;;25.30;28.51
26443;BME280;5563;52.296;6.806;2023-06-14T11:57:20;101642.53;;;25.36;28.43
26443;BME280;5563;52.296;6.806;2023-06-14T11:59:54;101639.66;;;25.44;28.03
26443;BME280;5563;52.296;6.806;2023-06-14T12:02:31;101637.00;;;25.57;28.63
26443;BME280;5563;52.296;6.806;2023-06-14T12:05:05;101638.91;;;25.63;28.90
26443;BME280;5563;52.296;6.806;2023-06-14T12:07:46;101639.34;;;25.67;27.58
26443;BME280;5563;52.296;6.806;2023-06-14T12:10:20;101645.53;;;25.41;28.08
26443;BME280;5563;52.296;6.806;2023-06-14T12:12:47;101642.41;;;25.51;27.22
26443;BME280;5563;52.296;6.806;2023-06-14T12:15:20;101645.84;;;25.32;27.72
26443;BME280;5563;52.296;6.806;2023-06-14T12:17:48;101648.31;;;25.20;28.58
26443;BME280;5563;52.296;6.806;2023-06-14T12:20:21;101647.56;;;25.33;27.60
26443;BME280;5563;52.296;6.806;2023-06-14T12:22:58;101644.59;;;25.62;27.43
26443;BME280;5563;52.296;6.806;2023-06-14T12:25:33;101635.25;;;25.84;27.06
26443;BME280;5563;52.296;6.806;2023-06-14T12:28:09;101644.53;;;26.03;27.99
26443;BME280;5563;52.296;6.806;2023-06-14T12:30:43;101639.97;;;26.10;27.68
26443;BME280;5563;52.296;6.806;2023-06-14T12:33:17;101644.63;;;26.16;28.11
26443;BME280;5563;52.296;6.806;2023-06-14T12:35:44;101640.19;;;26.15;26.87
26443;BME280;5563;52.296;6.806;2023-06-14T12:38:18;101643.63;;;26.30;27.58
26443;BME280;5563;52.296;6.806;2023-06-14T12:40:45;101646.06;;;26.05;26.83
26443;BME280;5563;52.296;6.806;2023-06-14T12:43:18;101657.84;;;26.06;28.06
26443;BME280;5563;52.296;6.806;2023-06-14T12:45:46;101650.09;;;26.09;26.87
26443;BME280;5563;52.296;6.806;2023-06-14T12:48:19;101650.91;;;26.03;27.19
26443;BME280;5563;52.296;6.806;2023-06-14T12:50:53;101652.94;;;25.95;27.84
26443;BME280;5563;52.296;6.806;2023-06-14T12:53:21;101632.75;;;25.96;29.11
26443;BME280;5563;52.296;6.806;2023-06-14T12:55:54;101644.91;;;26.40;28.44
26443;BME280;5563;52.296;6.806;2023-06-14T12:58:27;101636.28;;;26.63;26.70
26443;BME280;5563;52.296;6.806;2023-06-14T13:00:54;101649.19;;;26.69;27.27
26443;BME280;5563;52.296;6.806;2023-06-14T13:03:34;101647.66;;;26.66;27.23
26443;BME280;5563;52.296;6.806;2023-06-14T13:06:15;101647.91;;;26.91;26.84
26443;BME280;5563;52.296;6.806;2023-06-14T13:08:48;101648.09;;;27.22;26.16
26443;BME280;5563;52.296;6.806;2023-06-14T13:11:22;101650.41;;;27.19;26.87
26443;BME280;5563;52.296;6.806;2023-06-14T13:13:49;101651.28;;;27.06;26.48
26443;BME280;5563;52.296;6.806;2023-06-14T13:16:22;101644.09;;;27.05;26.70
26443;BME280;5563;52.296;6.806;2023-06-14T13:18:56;101651.47;;;26.98;25.78
26443;BME280;5563;52.296;6.806;2023-06-14T13:21:23;101647.91;;;26.85;25.85
26443;BME280;5563;52.296;6.806;2023-06-14T13:23:56;101644.97;;;26.80;27.68
26443;BME280;5563;52.296;6.806;2023-06-14T13:26:29;101645.59;;;26.82;27.08
26443;BME280;5563;52.296;6.806;2023-06-14T13:29:03;101655.06;;;26.92;25.44
26443;BME280;5563;52.296;6.806;2023-06-14T13:31:36;101651.50;;;26.92;26.52
26443;BME280;5563;52.296;6.806;2023-06-14T13:34:09;101648.75;;;27.11;24.95
26443;BME280;5563;52.296;6.806;2023-06-14T13:36:36;101652.53;;;27.10;24.47
26443;BME280;5563;52.296;6.806;2023-06-14T13:39:10;101643.88;;;27.20;24.23
26443;BME280;5563;52.296;6.806;2023-06-14T13:41:46;101641.16;;;27.26;24.30
26443;BME280;5563;52.296;6.806;2023-06-14T13:44:19;101632.53;;;27.23;23.57